createdAt,value
2022-07-30T00:01:14.278Z,6.90
2022-07-30T00:03:40.915Z,7.47
2022-07-30T00:06:07.523Z,8.25
2022-07-30T00:08:34.172Z,9.75
2022-07-30T00:11:00.730Z,8.00
2022-07-30T00:13:27.345Z,8.65
2022-07-30T00:15:53.890Z,6.95
2022-07-30T00:18:20.410Z,10.40
2022-07-30T00:20:48.938Z,8.95
2022-07-30T00:23:15.803Z,8.18
2022-07-30T00:25:42.404Z,8.18
2022-07-30T00:28:08.908Z,17.00
2022-07-30T00:30:35.660Z,9.23
2022-07-30T00:33:02.306Z,8.80
2022-07-30T00:35:28.930Z,8.13
2022-07-30T00:37:55.498Z,8.48
2022-07-30T00:40:22.313Z,8.57
2022-07-30T00:42:48.969Z,7.97
2022-07-30T00:45:17.421Z,12.45
2022-07-30T00:47:44.392Z,7.13
2022-07-30T00:50:12.744Z,9.63
2022-07-30T00:52:39.726Z,7.47
2022-07-30T00:55:08.562Z,6.75
2022-07-30T00:57:35.280Z,8.15
2022-07-30T01:00:02.197Z,9.90
2022-07-30T01:02:28.781Z,11.85
2022-07-30T01:04:55.364Z,12.52
2022-07-30T01:07:22.080Z,11.50
2022-07-30T01:09:53.907Z,10.48
2022-07-30T01:12:23.916Z,14.25
2022-07-30T01:14:50.572Z,16.05
2022-07-30T01:17:17.098Z,11.15
2022-07-30T01:19:55.846Z,14.93
2022-07-30T01:22:30.606Z,13.52
2022-07-30T01:25:03.790Z,17.20
2022-07-30T01:27:33.868Z,19.77
2022-07-30T01:30:04.478Z,14.43
2022-07-30T01:32:31.650Z,13.10
2022-07-30T01:34:59.211Z,17.02
2022-07-30T01:37:26.043Z,16.55
2022-07-30T01:39:53.405Z,17.48
2022-07-30T01:42:20.981Z,16.67
2022-07-30T01:44:48.898Z,16.60
2022-07-30T01:47:17.538Z,13.32
2022-07-30T01:49:47.289Z,17.40
2022-07-30T01:52:14.986Z,15.02
2022-07-30T01:54:44.848Z,14.13
2022-07-30T01:57:11.810Z,14.27
2022-07-30T01:59:40.245Z,19.05
2022-07-30T02:02:06.894Z,12.80
2022-07-30T02:04:34.239Z,12.77
2022-07-30T02:07:13.166Z,14.25
2022-07-30T02:09:47.335Z,13.15
2022-07-30T02:12:28.501Z,13.75
2022-07-30T02:15:12.066Z,13.55
2022-07-30T02:17:45.471Z,13.38
2022-07-30T02:20:14.665Z,12.02
2022-07-30T02:25:14.923Z,16.50
2022-07-30T02:27:43.419Z,13.63
2022-07-30T02:30:10.833Z,13.65
2022-07-30T02:32:39.595Z,14.60
2022-07-30T02:35:25.000Z,16.48
2022-07-30T02:37:52.974Z,10.32
2022-07-30T02:40:20.544Z,12.57
2022-07-30T02:42:49.752Z,13.70
2022-07-30T02:45:20.123Z,15.85
2022-07-30T02:47:50.956Z,18.67
2022-07-30T02:50:18.282Z,16.10
2022-07-30T02:52:45.435Z,12.25
2022-07-30T02:55:12.542Z,15.13
2022-07-30T02:57:43.510Z,15.73
2022-07-30T03:00:11.927Z,15.55
2022-07-30T03:05:07.495Z,13.80
2022-07-30T03:07:35.358Z,14.07
2022-07-30T03:10:02.313Z,12.73
2022-07-30T03:12:33.036Z,12.70
2022-07-30T03:14:59.731Z,13.88
2022-07-30T03:17:29.179Z,12.23
2022-07-30T03:19:56.271Z,11.90
2022-07-30T03:22:26.063Z,13.63
2022-07-30T03:24:55.625Z,13.40
2022-07-30T03:27:22.645Z,13.85
2022-07-30T03:29:52.383Z,18.02
2022-07-30T03:32:19.172Z,14.45
2022-07-30T03:34:54.177Z,13.23
2022-07-30T03:37:21.539Z,12.70
2022-07-30T03:39:48.580Z,13.47
2022-07-30T03:42:15.691Z,15.68
2022-07-30T03:44:45.628Z,11.40
2022-07-30T03:47:12.899Z,11.45
2022-07-30T03:49:39.535Z,16.83
2022-07-30T03:52:07.081Z,14.70
2022-07-30T03:54:33.980Z,16.15
2022-07-30T03:57:02.222Z,16.98
2022-07-30T03:59:29.713Z,13.23
2022-07-30T04:02:06.893Z,12.68
2022-07-30T04:04:34.334Z,11.70
2022-07-30T04:07:01.338Z,14.57
2022-07-30T04:09:28.125Z,10.77
2022-07-30T04:11:54.649Z,12.50
2022-07-30T04:14:21.223Z,11.20
2022-07-30T04:16:52.156Z,9.80
2022-07-30T04:19:23.205Z,10.90
2022-07-30T04:21:51.192Z,11.30
2022-07-30T04:24:19.353Z,12.85
2022-07-30T04:26:46.697Z,13.07
2022-07-30T04:29:18.125Z,14.13
2022-07-30T04:31:45.953Z,14.25
2022-07-30T04:34:14.862Z,13.02
2022-07-30T04:36:42.584Z,14.85
2022-07-30T04:39:09.994Z,15.93
2022-07-30T04:41:49.578Z,17.67
2022-07-30T04:44:19.947Z,20.98
2022-07-30T04:46:47.809Z,17.83
2022-07-30T04:49:15.916Z,19.88
2022-07-30T04:51:42.710Z,14.85
2022-07-30T04:54:15.479Z,23.67
2022-07-30T04:56:53.459Z,18.58
2022-07-30T04:59:21.999Z,16.15
2022-07-30T05:01:50.078Z,19.88
2022-07-30T05:04:17.392Z,18.70
2022-07-30T05:06:44.321Z,26.10
2022-07-30T05:09:12.079Z,20.38
2022-07-30T05:11:38.701Z,16.08
2022-07-30T05:14:05.276Z,15.90
2022-07-30T05:16:34.112Z,15.20
2022-07-30T05:19:00.738Z,17.30
2022-07-30T05:21:28.645Z,16.85
2022-07-30T05:23:55.648Z,18.85
2022-07-30T05:26:22.617Z,19.02
2022-07-30T05:28:56.635Z,17.15
2022-07-30T05:31:23.806Z,13.32
2022-07-30T05:33:51.567Z,13.23
2022-07-30T05:36:18.887Z,15.13
2022-07-30T05:38:45.401Z,13.57
2022-07-30T05:41:18.202Z,17.10
2022-07-30T05:43:58.457Z,12.55
2022-07-30T05:46:25.017Z,13.75
2022-07-30T05:48:51.619Z,12.80
2022-07-30T05:51:19.801Z,13.60
2022-07-30T05:56:13.172Z,13.48
2022-07-30T05:58:39.774Z,11.15
2022-07-30T06:01:06.347Z,11.88
2022-07-30T06:03:33.882Z,9.75
2022-07-30T06:06:00.580Z,11.50
2022-07-30T06:08:27.036Z,11.20
2022-07-30T06:10:53.536Z,10.90
2022-07-30T06:13:20.062Z,11.15
2022-07-30T06:15:46.639Z,10.63
2022-07-30T06:18:13.181Z,11.07
2022-07-30T06:20:42.187Z,13.05
2022-07-30T06:23:08.717Z,12.43
2022-07-30T06:25:35.220Z,11.05
2022-07-30T06:28:21.299Z,10.73
2022-07-30T06:30:52.502Z,10.07
2022-07-30T06:33:19.097Z,13.23
2022-07-30T06:35:45.607Z,11.40
2022-07-30T06:38:12.104Z,16.05
2022-07-30T06:40:39.471Z,12.70
2022-07-30T06:43:06.252Z,21.92
2022-07-30T06:45:32.789Z,10.57
2022-07-30T06:47:59.735Z,11.85
2022-07-30T06:50:26.428Z,13.40
2022-07-30T06:52:53.136Z,13.13
2022-07-30T06:55:19.603Z,13.10
2022-07-30T06:57:46.118Z,13.43
2022-07-30T07:00:12.888Z,13.05
2022-07-30T07:02:39.510Z,9.73
2022-07-30T07:05:07.391Z,9.90
2022-07-30T07:07:42.451Z,11.02
2022-07-30T07:10:13.054Z,15.50
2022-07-30T07:12:39.590Z,14.85
2022-07-30T07:15:06.806Z,10.40
2022-07-30T07:17:33.430Z,9.80
2022-07-30T07:20:02.477Z,9.02
2022-07-30T07:22:29.447Z,12.13
2022-07-30T07:24:56.075Z,9.80
2022-07-30T07:27:22.854Z,10.85
2022-07-30T07:30:01.733Z,12.00
2022-07-30T07:32:33.155Z,13.52
2022-07-30T07:34:59.733Z,11.60
2022-07-30T07:37:26.318Z,12.15
2022-07-30T07:39:52.795Z,12.02
2022-07-30T07:42:19.335Z,10.38
2022-07-30T07:44:45.847Z,10.25
2022-07-30T07:47:12.407Z,11.73
2022-07-30T07:49:38.899Z,12.57
2022-07-30T07:52:05.862Z,11.07
2022-07-30T07:54:32.409Z,12.27
2022-07-30T07:56:59.296Z,10.77
2022-07-30T07:59:36.018Z,11.13
2022-07-30T08:02:08.051Z,11.15
2022-07-30T08:04:35.343Z,14.43
2022-07-30T08:07:02.359Z,12.77
2022-07-30T08:09:42.034Z,15.32
2022-07-30T08:12:11.037Z,13.35
2022-07-30T08:14:37.822Z,13.57
2022-07-30T08:17:04.729Z,15.52
2022-07-30T08:19:31.561Z,13.75
2022-07-30T08:21:59.736Z,13.52
2022-07-30T08:24:27.028Z,12.20
2022-07-30T08:26:53.800Z,14.47
2022-07-30T08:29:21.353Z,14.75
2022-07-30T08:31:47.888Z,10.93
2022-07-30T08:34:14.463Z,12.48
2022-07-30T08:36:41.454Z,14.10
2022-07-30T08:39:08.607Z,16.05
2022-07-30T08:41:37.086Z,19.40
2022-07-30T08:44:06.909Z,12.27
2022-07-30T08:46:37.062Z,12.65
2022-07-30T08:49:09.152Z,13.40
2022-07-30T08:51:38.639Z,12.05
2022-07-30T08:54:06.194Z,11.25
2022-07-30T08:56:33.731Z,10.30
2022-07-30T08:59:01.011Z,15.38
2022-07-30T09:01:27.802Z,13.87
2022-07-30T09:03:54.343Z,12.77
2022-07-30T09:06:20.928Z,14.05
2022-07-30T09:08:47.457Z,13.73
2022-07-30T09:11:14.152Z,14.60
2022-07-30T09:13:42.372Z,11.93
2022-07-30T09:16:25.292Z,11.25
2022-07-30T09:18:53.901Z,10.43
2022-07-30T09:21:25.959Z,9.52
2022-07-30T09:24:02.056Z,10.90
2022-07-30T09:26:31.144Z,13.15
2022-07-30T09:29:17.237Z,16.33
2022-07-30T09:32:01.851Z,11.98
2022-07-30T09:34:33.694Z,12.15
2022-07-30T09:37:02.359Z,13.68
2022-07-30T09:39:29.875Z,13.23
2022-07-30T09:41:56.807Z,11.25
2022-07-30T09:44:28.178Z,10.35
2022-07-30T09:46:54.796Z,9.07
2022-07-30T09:49:24.873Z,10.75
2022-07-30T09:51:56.328Z,8.80
2022-07-30T09:54:25.381Z,10.45
2022-07-30T09:57:23.120Z,9.93
2022-07-30T09:59:53.571Z,12.10
2022-07-30T10:02:21.775Z,10.07
2022-07-30T10:04:48.439Z,9.25
2022-07-30T10:07:25.677Z,7.63
2022-07-30T10:09:54.230Z,10.35
2022-07-30T10:12:23.946Z,10.65
2022-07-30T10:14:53.317Z,10.90
2022-07-30T10:17:20.229Z,7.10
2022-07-30T10:22:17.131Z,7.93
2022-07-30T10:27:10.520Z,7.85
2022-07-30T10:29:42.796Z,8.98
2022-07-30T10:32:10.056Z,7.43
2022-07-30T10:34:38.249Z,9.88
2022-07-30T10:37:11.095Z,7.82
2022-07-30T10:39:57.515Z,8.73
2022-07-30T10:42:42.725Z,6.00
2022-07-30T10:45:18.506Z,5.70
2022-07-30T10:47:49.875Z,8.45
2022-07-30T10:50:22.703Z,7.38
2022-07-30T10:52:57.584Z,7.65
2022-07-30T10:55:38.499Z,7.05
2022-07-30T10:58:15.531Z,8.32
2022-07-30T11:00:51.865Z,6.38
2022-07-30T11:03:41.432Z,6.35
2022-07-30T11:06:24.546Z,6.53
2022-07-30T11:08:51.820Z,6.15
2022-07-30T11:11:59.163Z,6.70
2022-07-30T11:14:07.995Z,5.68
2022-07-30T11:16:34.970Z,6.75
2022-07-30T11:19:54.874Z,6.70
2022-07-30T11:22:31.694Z,10.20
2022-07-30T11:24:59.726Z,8.80
2022-07-30T11:27:45.652Z,5.07
2022-07-30T11:30:15.514Z,7.18
2022-07-30T11:32:48.581Z,8.23
2022-07-30T11:35:23.160Z,8.95
2022-07-30T11:38:08.949Z,7.43
2022-07-30T11:40:48.806Z,7.30
2022-07-30T11:43:15.259Z,7.97
2022-07-30T11:45:41.992Z,8.18
2022-07-30T11:48:13.957Z,8.07
2022-07-30T11:50:41.587Z,7.47
2022-07-30T11:53:10.435Z,7.45
2022-07-30T11:55:40.344Z,8.45
2022-07-30T11:58:14.618Z,10.73
2022-07-30T12:00:48.029Z,8.50
2022-07-30T12:03:16.342Z,6.22
2022-07-30T12:05:43.963Z,4.55
2022-07-30T12:08:35.442Z,6.78
2022-07-30T12:13:44.133Z,7.63
2022-07-30T12:16:14.506Z,7.68
2022-07-30T12:18:41.143Z,5.15
2022-07-30T12:21:09.361Z,6.65
2022-07-30T12:23:36.685Z,8.48
2022-07-30T12:26:05.794Z,10.00
2022-07-30T12:28:34.382Z,9.23
2022-07-30T12:31:04.208Z,4.80
2022-07-30T12:33:31.087Z,5.22
2022-07-30T12:35:59.883Z,9.07
2022-07-30T12:38:28.229Z,8.43
2022-07-30T12:41:03.043Z,7.53
2022-07-30T12:43:52.412Z,5.22
2022-07-30T12:46:23.632Z,6.28
2022-07-30T12:49:10.322Z,7.72
2022-07-30T12:51:59.761Z,8.50
2022-07-30T12:54:27.784Z,5.50
2022-07-30T12:56:57.701Z,5.95
2022-07-30T12:59:25.831Z,5.85
2022-07-30T13:01:53.753Z,4.00
2022-07-30T13:04:20.449Z,3.80
2022-07-30T13:07:07.872Z,8.38
2022-07-30T13:09:34.995Z,5.88
2022-07-30T13:12:01.604Z,5.23
2022-07-30T13:14:28.351Z,6.53
2022-07-30T13:16:58.866Z,5.93
2022-07-30T13:19:26.530Z,5.65
2022-07-30T13:21:53.229Z,6.38
2022-07-30T13:24:20.140Z,4.10
2022-07-30T13:26:47.811Z,4.28
2022-07-30T13:29:17.180Z,11.85
2022-07-30T13:31:43.720Z,7.05
2022-07-30T13:34:11.918Z,4.00
2022-07-30T13:36:38.563Z,5.35
2022-07-30T13:39:05.101Z,6.63
2022-07-30T13:41:31.658Z,5.18
2022-07-30T13:43:58.288Z,6.55
2022-07-30T13:46:24.841Z,6.97
2022-07-30T13:48:51.483Z,4.85
2022-07-30T13:51:18.506Z,7.43
2022-07-30T13:53:45.040Z,6.15
2022-07-30T13:56:12.941Z,5.13
2022-07-30T13:58:40.210Z,4.03
2022-07-30T14:01:09.628Z,6.00
2022-07-30T14:03:47.090Z,6.28
2022-07-30T14:06:15.938Z,3.55
2022-07-30T14:08:42.606Z,3.88
2022-07-30T14:11:09.139Z,4.05
2022-07-30T14:13:35.819Z,4.93
2022-07-30T14:16:02.335Z,3.95
2022-07-30T14:18:28.969Z,4.90
2022-07-30T14:20:55.975Z,4.88
2022-07-30T14:23:22.557Z,4.57
2022-07-30T14:25:49.436Z,3.38
2022-07-30T14:28:15.992Z,4.95
2022-07-30T14:30:43.198Z,3.38
2022-07-30T14:33:10.370Z,5.80
2022-07-30T14:35:37.144Z,5.67
2022-07-30T14:38:04.117Z,4.15
2022-07-30T14:40:30.724Z,8.43
2022-07-30T14:42:57.948Z,6.00
2022-07-30T14:45:25.574Z,5.03
2022-07-30T14:47:52.505Z,5.50
2022-07-30T14:50:19.300Z,5.38
2022-07-30T14:52:47.489Z,8.23
2022-07-30T14:55:14.133Z,6.95
2022-07-30T14:57:40.698Z,3.70
2022-07-30T15:00:09.564Z,5.60
2022-07-30T15:02:37.737Z,4.25
2022-07-30T15:05:04.601Z,4.93
2022-07-30T15:07:34.550Z,5.05
2022-07-30T15:10:02.532Z,5.78
2022-07-30T15:12:29.209Z,8.02
2022-07-30T15:14:55.895Z,3.65
2022-07-30T15:17:22.376Z,2.63
2022-07-30T15:19:50.732Z,5.15
2022-07-30T15:22:19.034Z,2.63
2022-07-30T15:24:45.533Z,4.20
2022-07-30T15:27:12.387Z,3.78
2022-07-30T15:29:38.900Z,3.88
2022-07-30T15:32:06.053Z,5.35
2022-07-30T15:34:34.523Z,3.28
2022-07-30T15:37:02.603Z,5.65
2022-07-30T15:41:57.101Z,4.85
2022-07-30T15:44:24.276Z,3.47
2022-07-30T15:46:50.924Z,8.87
2022-07-30T15:49:17.562Z,5.95
2022-07-30T15:51:48.645Z,6.65
2022-07-30T15:54:22.408Z,4.07
2022-07-30T15:56:50.783Z,3.80
2022-07-30T15:59:17.834Z,3.35
2022-07-30T16:01:44.566Z,7.68
2022-07-30T16:04:19.715Z,8.13
2022-07-30T16:06:49.752Z,5.28
2022-07-30T16:09:16.532Z,7.65
2022-07-30T16:11:43.176Z,4.63
2022-07-30T16:14:09.865Z,7.38
2022-07-30T16:16:36.860Z,6.50
2022-07-30T16:19:03.807Z,10.93
2022-07-30T16:21:30.509Z,5.63
2022-07-30T16:23:57.082Z,6.22
2022-07-30T16:26:23.614Z,10.65
2022-07-30T16:28:50.277Z,6.47
2022-07-30T16:31:17.122Z,7.75
2022-07-30T16:33:43.622Z,5.05
2022-07-30T16:36:10.365Z,3.53
2022-07-30T16:38:37.249Z,5.20
2022-07-30T16:41:03.912Z,2.60
2022-07-30T16:43:31.982Z,7.15
2022-07-30T16:45:59.513Z,5.15
2022-07-30T16:48:26.664Z,8.23
2022-07-30T16:50:53.590Z,5.55
2022-07-30T16:53:20.161Z,4.57
2022-07-30T16:55:47.292Z,3.83
2022-07-30T16:58:13.841Z,4.43
2022-07-30T17:00:40.511Z,8.40
2022-07-30T17:03:07.096Z,3.28
2022-07-30T17:05:33.616Z,5.65
2022-07-30T17:08:00.240Z,4.22
2022-07-30T17:10:27.303Z,4.55
2022-07-30T17:12:56.889Z,4.38
2022-07-30T17:15:32.092Z,4.97
2022-07-30T17:17:59.680Z,4.70
2022-07-30T17:20:26.201Z,3.70
2022-07-30T17:22:55.321Z,4.45
2022-07-30T17:25:22.815Z,4.70
2022-07-30T17:27:50.532Z,4.60
2022-07-30T17:30:17.532Z,4.80
2022-07-30T17:32:44.021Z,2.90
2022-07-30T17:35:13.826Z,4.43
2022-07-30T17:37:40.918Z,6.18
2022-07-30T17:40:28.621Z,3.00
2022-07-30T17:42:54.845Z,3.65
2022-07-30T17:45:21.525Z,4.85
2022-07-30T17:47:48.022Z,4.93
2022-07-30T17:50:14.842Z,20.27
2022-07-30T17:52:42.288Z,5.43
2022-07-30T17:55:11.301Z,4.22
2022-07-30T17:57:38.400Z,2.65
2022-07-30T18:00:06.952Z,3.00
2022-07-30T18:02:33.464Z,4.75
2022-07-30T18:05:00.062Z,4.30
2022-07-30T18:07:27.151Z,3.55
2022-07-30T18:09:53.809Z,5.40
2022-07-30T18:12:20.428Z,3.97
2022-07-30T18:14:47.004Z,4.57
2022-07-30T18:17:14.569Z,2.80
2022-07-30T18:19:42.302Z,4.20
2022-07-30T18:22:09.003Z,4.90
2022-07-30T18:24:40.357Z,5.07
2022-07-30T18:27:11.571Z,4.25
2022-07-30T18:29:38.051Z,6.10
2022-07-30T18:32:05.240Z,7.05
2022-07-30T18:34:32.041Z,6.80
2022-07-30T18:36:58.573Z,7.70
2022-07-30T18:39:25.122Z,4.45
2022-07-30T18:41:51.615Z,4.60
2022-07-30T18:44:18.353Z,10.00
2022-07-30T18:46:44.941Z,7.28
2022-07-30T18:49:35.162Z,3.83
2022-07-30T18:51:59.397Z,7.07
2022-07-30T18:54:25.978Z,5.28
2022-07-30T18:56:52.477Z,3.83
2022-07-30T18:59:19.035Z,8.13
2022-07-30T19:01:45.630Z,3.95
2022-07-30T19:04:12.196Z,6.13
2022-07-30T19:06:38.706Z,3.13
2022-07-30T19:09:05.911Z,7.00
2022-07-30T19:11:44.967Z,4.68
2022-07-30T19:14:13.140Z,4.50
2022-07-30T19:16:40.198Z,3.95
2022-07-30T19:19:06.695Z,6.45
2022-07-30T19:21:33.231Z,4.75
2022-07-30T19:23:59.781Z,4.00
2022-07-30T19:26:26.442Z,5.75
2022-07-30T19:28:52.921Z,5.13
2022-07-30T19:31:19.590Z,4.53
2022-07-30T19:33:46.128Z,6.70
2022-07-30T19:36:15.147Z,10.45
2022-07-30T19:38:44.138Z,4.57
2022-07-30T19:41:12.073Z,5.60
2022-07-30T19:43:41.041Z,6.53
2022-07-30T19:46:08.000Z,5.53
2022-07-30T19:48:37.309Z,3.75
2022-07-30T19:51:04.559Z,5.80
2022-07-30T19:53:34.166Z,4.00
2022-07-30T19:56:03.309Z,4.47
2022-07-30T19:58:30.710Z,2.22
2022-07-30T20:00:57.371Z,7.17
2022-07-30T20:06:14.821Z,5.90
2022-07-30T20:08:41.807Z,8.93
2022-07-30T20:11:11.831Z,4.30
2022-07-30T20:13:48.020Z,5.05
2022-07-30T20:16:15.818Z,5.53
2022-07-30T20:18:42.985Z,6.47
2022-07-30T20:21:15.179Z,4.82
2022-07-30T20:23:42.948Z,3.85
2022-07-30T20:26:13.639Z,5.10
2022-07-30T20:28:41.139Z,3.35
2022-07-30T20:31:08.355Z,4.95
2022-07-30T20:33:35.802Z,6.65
2022-07-30T20:36:02.448Z,7.37
2022-07-30T20:38:30.347Z,4.35
2022-07-30T20:40:57.326Z,5.45
2022-07-30T20:43:24.061Z,6.50
2022-07-30T20:45:54.198Z,4.32
2022-07-30T20:48:25.590Z,4.78
2022-07-30T20:50:52.589Z,6.63
2022-07-30T20:53:19.847Z,5.90
2022-07-30T20:55:47.395Z,10.35
2022-07-30T21:01:00.560Z,6.90
2022-07-30T21:03:31.636Z,3.38
2022-07-30T21:05:58.813Z,6.68
2022-07-30T21:08:26.485Z,3.33
2022-07-30T21:10:53.411Z,2.60
2022-07-30T21:13:23.056Z,5.50
2022-07-30T21:16:02.326Z,4.57
2022-07-30T21:20:57.243Z,5.85
2022-07-30T21:23:23.907Z,3.55
2022-07-30T21:26:02.297Z,10.50
2022-07-30T21:28:35.937Z,4.75
2022-07-30T21:31:03.870Z,8.55
2022-07-30T21:33:35.979Z,5.93
2022-07-30T21:36:02.489Z,3.22
2022-07-30T21:38:31.756Z,4.50
2022-07-30T21:43:30.124Z,2.83
2022-07-30T21:45:58.215Z,10.77
2022-07-30T21:48:25.575Z,5.57
2022-07-30T21:53:45.191Z,6.28
2022-07-30T21:56:06.853Z,4.25
2022-07-30T21:58:33.569Z,3.63
2022-07-30T22:01:16.316Z,6.07
2022-07-30T22:04:04.605Z,7.88
2022-07-30T22:06:37.690Z,5.18
2022-07-30T22:09:20.542Z,5.88
2022-07-30T22:11:52.947Z,4.47
2022-07-30T22:14:19.480Z,3.83
2022-07-30T22:16:46.891Z,5.43
2022-07-30T22:19:14.876Z,4.85
2022-07-30T22:21:42.661Z,5.30
2022-07-30T22:24:29.806Z,4.30
2022-07-30T22:27:01.723Z,2.05
2022-07-30T22:29:41.662Z,5.57
2022-07-30T22:32:09.624Z,10.02
2022-07-30T22:34:37.296Z,8.00
2022-07-30T22:37:03.825Z,4.85
2022-07-30T22:39:32.126Z,3.72
2022-07-30T22:42:16.808Z,14.18
2022-07-30T22:44:45.944Z,3.13
2022-07-30T22:47:21.177Z,5.53
2022-07-30T22:49:55.283Z,8.43
2022-07-30T22:52:25.331Z,8.38
2022-07-30T22:54:58.654Z,4.60
2022-07-30T22:57:27.442Z,4.82
2022-07-30T22:59:58.220Z,6.82
2022-07-30T23:02:27.784Z,4.22
2022-07-30T23:04:54.960Z,6.72
2022-07-30T23:07:23.363Z,4.93
2022-07-30T23:09:52.096Z,5.43
2022-07-30T23:12:15.733Z,7.47
2022-07-30T23:12:20.176Z,4.70
2022-07-30T23:12:26.632Z,6.70
2022-07-30T23:17:13.656Z,4.43
2022-07-30T23:19:40.287Z,5.43
2022-07-30T23:22:07.128Z,6.25
2022-07-30T23:24:33.789Z,8.45
2022-07-30T23:27:00.567Z,10.43
2022-07-30T23:29:28.548Z,5.90
2022-07-30T23:31:55.454Z,6.28
2022-07-30T23:34:21.951Z,8.27
2022-07-30T23:36:48.553Z,5.00
2022-07-30T23:39:15.061Z,6.03
2022-07-30T23:41:41.622Z,7.10
2022-07-30T23:44:08.088Z,5.90
2022-07-30T23:46:37.050Z,8.50
2022-07-30T23:49:04.622Z,6.38
2022-07-30T23:51:33.568Z,5.85
2022-07-30T23:54:00.657Z,5.25
2022-07-30T23:56:27.329Z,4.63
2022-07-30T23:58:54.691Z,7.53
